Time;durP1;ratioP1;P1;durP2;ratioP2;P2;SDS_P1;SDS_P2;PMS_P1;PMS_P2;Temp;Humidity;BMP_temperature;BMP_pressure;BME280_temperature;BME280_humidity;BME280_pressure;Samples;Min_cycle;Max_cycle;Signal;HPM_P1;HPM_P2
2024/02/22 00:00:46;;;;;;;1.75;1.05;;;10.00;99.90;;;;;;5054281;28;20492;-77
2024/02/22 00:03:12;;;;;;;2.10;1.27;;;10.00;99.90;;;;;;5053907;28;20146;-77
2024/02/22 00:05:37;;;;;;;2.22;1.40;;;10.00;99.90;;;;;;5054173;28;20503;-77
2024/02/22 00:08:03;;;;;;;3.65;1.27;;;10.00;99.90;;;;;;5052273;28;20025;-77
2024/02/22 00:10:29;;;;;;;2.85;1.35;;;10.00;99.90;;;;;;5051972;28;20029;-77
2024/02/22 00:12:56;;;;;;;2.33;1.25;;;10.00;99.90;;;;;;5052523;28;20037;-76
2024/02/22 00:15:23;;;;;;;3.55;1.48;;;10.00;99.90;;;;;;5054270;28;20025;-77
2024/02/22 00:17:49;;;;;;;3.08;1.27;;;10.00;99.90;;;;;;5069350;28;20032;-77
2024/02/22 00:20:17;;;;;;;2.30;1.05;;;10.00;99.90;;;;;;5068734;28;20043;-77
2024/02/22 00:22:44;;;;;;;3.58;1.33;;;10.00;99.90;;;;;;5053728;28;20021;-76
2024/02/22 00:25:09;;;;;;;4.22;1.30;;;10.00;99.90;;;;;;5051894;28;20025;-77
2024/02/22 00:27:36;;;;;;;3.08;1.65;;;10.00;99.90;;;;;;5052457;28;20036;-76
2024/02/22 00:30:02;;;;;;;1.77;1.23;;;10.00;99.90;;;;;;5068406;28;20029;-76
2024/02/22 00:32:28;;;;;;;2.45;1.30;;;9.90;99.90;;;;;;5053588;28;20025;-76
2024/02/22 00:34:54;;;;;;;1.98;1.30;;;9.90;99.90;;;;;;5068287;28;20029;-76
2024/02/22 00:37:20;;;;;;;1.80;1.20;;;9.90;99.90;;;;;;5068964;28;20371;-77
2024/02/22 00:39:46;;;;;;;3.10;1.25;;;9.90;99.90;;;;;;5068565;28;20052;-77
2024/02/22 00:42:12;;;;;;;2.38;1.23;;;9.80;99.90;;;;;;5052544;28;20071;-77
2024/02/22 00:44:37;;;;;;;2.58;1.30;;;9.80;99.90;;;;;;5053428;28;20049;-77
2024/02/22 00:47:03;;;;;;;2.30;1.27;;;9.80;99.90;;;;;;5052438;28;20021;-77
2024/02/22 00:49:29;;;;;;;3.22;1.40;;;9.80;99.90;;;;;;5052869;28;20032;-77
2024/02/22 00:51:54;;;;;;;1.70;1.05;;;9.80;99.90;;;;;;5052658;28;20111;-76
2024/02/22 00:54:20;;;;;;;3.30;1.30;;;9.80;99.90;;;;;;5068278;28;20025;-76
2024/02/22 00:56:45;;;;;;;2.50;1.27;;;9.80;99.90;;;;;;5052933;28;20024;-77
2024/02/22 00:59:11;;;;;;;2.03;1.17;;;9.80;99.90;;;;;;5067886;28;20386;-77
2024/02/22 01:01:37;;;;;;;4.18;1.40;;;9.70;99.90;;;;;;5068318;28;20438;-76
2024/02/22 01:04:03;;;;;;;3.08;1.38;;;9.70;99.90;;;;;;5051347;28;20021;-77
2024/02/22 01:06:28;;;;;;;2.47;1.30;;;9.70;99.90;;;;;;5068506;28;20029;-77
2024/02/22 01:08:54;;;;;;;1.77;1.30;;;9.70;99.90;;;;;;5053079;28;20484;-77
2024/02/22 01:11:20;;;;;;;1.73;1.23;;;9.70;99.90;;;;;;5052428;28;20053;-76
2024/02/22 01:13:48;;;;;;;1.90;1.08;;;9.60;99.90;;;;;;5052878;28;20454;-77
2024/02/22 01:16:17;;;;;;;2.67;1.25;;;9.60;99.90;;;;;;5067579;28;20021;-76
2024/02/22 01:18:43;;;;;;;3.75;1.23;;;9.60;99.90;;;;;;5068102;28;20120;-77
2024/02/22 01:21:09;;;;;;;2.08;1.10;;;9.60;99.90;;;;;;5052101;28;20071;-77
2024/02/22 01:23:35;;;;;;;4.10;1.50;;;9.60;99.90;;;;;;5068321;28;20034;-77
2024/02/22 01:26:01;;;;;;;2.38;1.20;;;9.60;99.90;;;;;;5067631;28;20025;-76
2024/02/22 01:28:26;;;;;;;3.75;1.60;;;9.60;99.90;;;;;;5051397;28;20029;-77
2024/02/22 01:30:52;;;;;;;2.80;1.23;;;9.70;99.90;;;;;;5051553;28;20029;-78
2024/02/22 01:33:18;;;;;;;3.65;1.10;;;9.60;99.90;;;;;;5050932;28;20060;-77
2024/02/22 01:35:43;;;;;;;2.75;1.23;;;9.60;99.90;;;;;;5052772;28;20403;-78
2024/02/22 01:38:09;;;;;;;3.25;1.38;;;9.60;99.90;;;;;;5050638;28;20025;-77
2024/02/22 01:40:34;;;;;;;3.47;1.13;;;9.60;99.90;;;;;;5051573;28;20033;-78
2024/02/22 01:43:00;;;;;;;1.35;0.90;;;9.60;99.90;;;;;;5052168;28;20049;-77
2024/02/22 01:45:25;;;;;;;2.53;1.60;;;9.60;99.90;;;;;;5068483;28;20397;-78
2024/02/22 01:47:52;;;;;;;3.67;1.30;;;9.60;99.90;;;;;;5068397;28;20060;-77
2024/02/22 01:50:19;;;;;;;2.53;1.40;;;9.60;99.90;;;;;;5067645;28;20090;-77
2024/02/22 01:52:45;;;;;;;3.25;1.48;;;9.60;99.90;;;;;;5067767;28;20079;-78
2024/02/22 01:55:12;;;;;;;1.77;1.00;;;9.70;99.90;;;;;;5067423;28;20025;-77
2024/02/22 01:57:38;;;;;;;2.40;1.00;;;9.70;99.90;;;;;;5068000;28;20102;-77
2024/02/22 02:00:11;;;;;;;2.38;1.10;;;9.70;99.90;;;;;;5067231;28;20424;-77
2024/02/22 02:02:37;;;;;;;2.50;1.10;;;9.60;99.90;;;;;;5070571;28;20054;-77
2024/02/22 02:05:06;;;;;;;1.63;1.08;;;9.70;99.90;;;;;;5055891;28;20454;-77
2024/02/22 02:07:32;;;;;;;2.13;1.10;;;9.70;99.90;;;;;;5055173;28;20056;-77
2024/02/22 02:09:58;;;;;;;2.58;1.00;;;9.70;99.90;;;;;;5072045;28;20033;-77
2024/02/22 02:12:27;;;;;;;1.48;0.90;;;9.70;99.90;;;;;;5071900;28;20029;-77
2024/02/22 02:14:53;;;;;;;1.88;1.02;;;9.70;99.90;;;;;;5056217;28;20036;-77
2024/02/22 02:17:19;;;;;;;3.10;1.50;;;9.70;99.90;;;;;;5055597;28;20374;-77
2024/02/22 02:19:45;;;;;;;2.13;1.02;;;9.70;99.90;;;;;;5071589;28;20504;-77
2024/02/22 02:22:17;;;;;;;3.80;0.90;;;9.70;99.90;;;;;;5071063;28;20030;-76
2024/02/22 02:25:03;;;;;;;1.35;0.95;;;9.70;99.90;;;;;;5071378;28;20052;-77
2024/02/22 02:27:32;;;;;;;1.15;0.82;;;9.70;99.90;;;;;;5071575;28;20037;-77
2024/02/22 02:29:57;;;;;;;2.95;0.88;;;9.70;99.90;;;;;;5071470;28;20021;-76
2024/02/22 02:32:23;;;;;;;1.50;0.98;;;9.70;99.90;;;;;;5070729;28;20155;-76
2024/02/22 02:34:48;;;;;;;0.93;0.80;;;9.70;99.90;;;;;;5071450;28;20032;-76
2024/02/22 02:37:14;;;;;;;1.30;0.70;;;9.70;99.90;;;;;;5070679;28;20501;-77
2024/02/22 02:39:41;;;;;;;1.80;0.80;;;9.70;99.90;;;;;;5054511;28;20032;-77
2024/02/22 02:42:07;;;;;;;2.13;0.88;;;9.70;99.90;;;;;;5070720;28;20036;-77
2024/02/22 02:44:32;;;;;;;1.52;0.70;;;9.70;99.90;;;;;;5055496;28;20053;-77
2024/02/22 02:46:58;;;;;;;1.77;0.70;;;9.80;99.90;;;;;;5055474;28;20036;-77
2024/02/22 02:49:23;;;;;;;1.10;0.68;;;9.70;99.90;;;;;;5055044;28;20021;-77
2024/02/22 02:51:49;;;;;;;0.93;0.60;;;9.70;99.90;;;;;;5055791;28;20021;-77
2024/02/22 02:54:15;;;;;;;1.52;0.90;;;9.70;99.90;;;;;;5070399;28;20485;-77
2024/02/22 02:56:40;;;;;;;2.58;0.82;;;9.80;99.90;;;;;;5055456;28;20025;-77
2024/02/22 02:59:06;;;;;;;2.17;0.73;;;9.70;99.90;;;;;;5054434;28;20470;-77
2024/02/22 03:01:32;;;;;;;1.05;0.80;;;9.70;99.90;;;;;;5054060;28;20075;-77
2024/02/22 03:03:58;;;;;;;2.08;0.73;;;9.70;99.90;;;;;;5070914;28;20032;-77
2024/02/22 03:06:24;;;;;;;1.15;0.65;;;9.70;99.90;;;;;;5054717;28;20029;-77
2024/02/22 03:08:49;;;;;;;1.52;0.90;;;9.80;99.90;;;;;;5055348;28;20028;-77
2024/02/22 03:11:15;;;;;;;1.17;0.65;;;9.70;99.90;;;;;;5053504;28;20028;-77
2024/02/22 03:13:41;;;;;;;1.17;0.70;;;9.70;99.90;;;;;;5070606;28;20127;-77
2024/02/22 03:16:07;;;;;;;1.23;0.60;;;9.70;99.90;;;;;;5070035;28;20029;-77
2024/02/22 03:18:33;;;;;;;1.20;0.70;;;9.70;99.90;;;;;;5054004;28;20385;-78
2024/02/22 03:21:00;;;;;;;1.50;0.73;;;9.70;99.90;;;;;;5054983;28;20446;-77
2024/02/22 03:23:27;;;;;;;0.68;0.60;;;9.70;99.90;;;;;;5054428;28;20021;-77
2024/02/22 03:25:53;;;;;;;1.38;0.70;;;9.70;99.90;;;;;;5054012;28;20120;-77
2024/02/22 03:28:19;;;;;;;2.70;0.73;;;9.70;99.90;;;;;;5069796;28;20064;-77
2024/02/22 03:30:46;;;;;;;2.25;0.60;;;9.80;99.90;;;;;;5070407;28;20033;-77
2024/02/22 03:33:13;;;;;;;0.77;0.68;;;9.70;99.90;;;;;;5054331;28;20025;-77
2024/02/22 03:35:39;;;;;;;1.25;0.80;;;9.70;99.90;;;;;;5054610;28;20509;-77
2024/02/22 03:38:05;;;;;;;0.65;0.60;;;9.80;99.90;;;;;;5052863;28;20033;-77
2024/02/22 03:40:31;;;;;;;0.85;0.50;;;9.80;99.90;;;;;;5053413;28;20033;-77
2024/02/22 03:42:59;;;;;;;2.38;0.70;;;9.70;99.90;;;;;;5053312;28;20045;-77
2024/02/22 03:45:25;;;;;;;0.68;0.50;;;9.70;99.90;;;;;;5052881;28;20044;-77
2024/02/22 03:47:50;;;;;;;2.30;0.50;;;9.70;99.90;;;;;;5053495;28;20025;-77
2024/02/22 03:50:16;;;;;;;0.63;0.40;;;9.70;99.90;;;;;;5054039;28;20025;-77
2024/02/22 03:52:42;;;;;;;1.00;0.60;;;9.80;99.90;;;;;;5053244;28;20031;-77
2024/02/22 03:55:11;;;;;;;1.00;0.50;;;9.80;99.90;;;;;;5052438;28;20061;-77
2024/02/22 03:57:37;;;;;;;0.88;0.43;;;9.80;99.90;;;;;;5054384;28;20032;-77
2024/02/22 04:00:06;;;;;;;0.80;0.60;;;9.70;99.90;;;;;;5054426;28;20082;-77
2024/02/22 04:02:32;;;;;;;0.50;0.50;;;9.80;99.90;;;;;;5053479;28;20032;-77
2024/02/22 04:05:00;;;;;;;1.20;0.80;;;9.80;99.90;;;;;;5053076;28;20025;-77
2024/02/22 04:07:26;;;;;;;2.03;0.57;;;9.80;99.90;;;;;;5052585;28;20174;-77
2024/02/22 04:09:52;;;;;;;0.65;0.50;;;9.80;99.90;;;;;;5053851;28;20067;-77
2024/02/22 04:12:18;;;;;;;1.58;0.52;;;9.80;99.90;;;;;;5053141;28;20115;-77
2024/02/22 04:14:44;;;;;;;1.08;0.70;;;9.80;99.90;;;;;;5053900;28;20106;-77
2024/02/22 04:17:10;;;;;;;1.17;0.65;;;9.80;99.90;;;;;;5052110;28;20029;-76
2024/02/22 04:19:35;;;;;;;0.98;0.60;;;9.80;99.90;;;;;;5052521;28;20029;-77
2024/02/22 04:22:01;;;;;;;1.08;0.60;;;9.80;99.90;;;;;;5053852;28;20032;-77
2024/02/22 04:24:26;;;;;;;0.50;0.50;;;9.80;99.90;;;;;;5051346;28;20061;-77
2024/02/22 04:26:54;;;;;;;0.60;0.57;;;9.80;99.90;;;;;;5052538;28;20064;-77
2024/02/22 04:29:20;;;;;;;0.80;0.60;;;9.80;99.90;;;;;;5051754;28;20492;-77
2024/02/22 04:31:46;;;;;;;1.65;0.80;;;9.80;99.90;;;;;;5052500;28;20029;-77
2024/02/22 04:34:12;;;;;;;1.70;0.50;;;9.80;99.90;;;;;;5051866;28;20029;-77
2024/02/22 04:36:40;;;;;;;1.42;0.80;;;9.80;99.90;;;;;;5052484;28;20523;-77
2024/02/22 04:39:09;;;;;;;0.88;0.60;;;9.80;99.90;;;;;;5052346;28;20485;-77
2024/02/22 04:41:35;;;;;;;0.90;0.60;;;9.80;99.90;;;;;;5052457;28;20394;-77
2024/02/22 04:44:02;;;;;;;2.00;0.57;;;9.80;99.90;;;;;;5053156;28;20049;-77
2024/02/22 04:46:28;;;;;;;4.63;1.50;;;9.80;99.90;;;;;;5051754;28;20205;-78
2024/02/22 04:48:53;;;;;;;0.50;0.50;;;9.80;99.90;;;;;;5052439;28;20025;-77
2024/02/22 04:51:19;;;;;;;0.85;0.65;;;9.80;99.90;;;;;;5051614;28;20021;-77
2024/02/22 04:53:44;;;;;;;1.00;0.60;;;9.80;99.90;;;;;;5053350;28;20363;-77
2024/02/22 04:56:12;;;;;;;1.23;0.63;;;9.80;99.90;;;;;;5051143;28;20025;-77
2024/02/22 04:58:37;;;;;;;1.00;0.50;;;9.80;99.90;;;;;;5052179;28;20044;-77
2024/02/22 05:01:04;;;;;;;1.25;0.60;;;9.80;99.90;;;;;;5052221;28;20414;-77
2024/02/22 05:03:30;;;;;;;0.82;0.70;;;9.80;99.90;;;;;;5052448;28;20022;-76
2024/02/22 05:05:56;;;;;;;1.50;0.50;;;9.80;99.90;;;;;;5051693;28;20029;-77
2024/02/22 05:08:23;;;;;;;0.77;0.50;;;9.80;99.90;;;;;;5052552;28;20087;-77
2024/02/22 05:10:49;;;;;;;0.82;0.55;;;9.80;99.90;;;;;;5051794;28;20086;-77
2024/02/22 05:13:15;;;;;;;1.30;0.70;;;9.80;99.90;;;;;;5052737;28;20037;-77
2024/02/22 05:15:41;;;;;;;1.17;0.65;;;9.80;99.90;;;;;;5051936;28;20025;-77
2024/02/22 05:18:07;;;;;;;1.10;0.57;;;9.80;99.90;;;;;;5052934;28;20033;-77
2024/02/22 05:20:34;;;;;;;1.27;0.70;;;9.80;99.90;;;;;;5052260;28;20037;-77
2024/02/22 05:23:00;;;;;;;1.05;0.82;;;9.90;99.90;;;;;;5051699;28;20060;-77
2024/02/22 05:25:25;;;;;;;0.70;0.60;;;9.90;99.90;;;;;;5051083;28;20056;-77
2024/02/22 05:27:51;;;;;;;2.15;0.65;;;9.90;99.90;;;;;;5052726;28;20029;-77
2024/02/22 05:30:17;;;;;;;1.30;0.70;;;9.90;99.90;;;;;;5052216;28;20143;-77
2024/02/22 05:32:42;;;;;;;1.42;1.00;;;9.90;99.90;;;;;;5051631;28;20021;-77
2024/02/22 05:35:08;;;;;;;0.93;0.57;;;9.90;99.90;;;;;;5051763;28;20493;-77
2024/02/22 05:37:34;;;;;;;4.47;1.05;;;9.90;99.90;;;;;;5050818;28;20481;-77
2024/02/22 05:40:00;;;;;;;1.08;0.50;;;9.90;99.90;;;;;;5052454;28;20033;-77
2024/02/22 05:42:26;;;;;;;1.25;0.60;;;10.00;99.90;;;;;;5050674;28;20382;-77
2024/02/22 05:44:52;;;;;;;0.77;0.50;;;10.00;99.90;;;;;;5051295;28;20029;-77
2024/02/22 05:47:17;;;;;;;1.15;1.00;;;10.00;99.90;;;;;;5050883;28;20074;-77
2024/02/22 05:49:43;;;;;;;0.82;0.50;;;10.00;99.90;;;;;;5051143;28;20029;-77
2024/02/22 05:52:08;;;;;;;1.17;0.70;;;10.00;99.90;;;;;;5051049;28;20032;-77
2024/02/22 05:54:34;;;;;;;1.38;0.50;;;10.00;99.90;;;;;;5048574;28;20025;-77
2024/02/22 05:57:01;;;;;;;1.23;0.88;;;10.00;99.90;;;;;;5050030;28;20025;-77
2024/02/22 05:59:27;;;;;;;0.75;0.60;;;10.00;99.90;;;;;;5050448;28;20029;-77
2024/02/22 06:01:52;;;;;;;0.50;0.40;;;10.00;99.90;;;;;;5050564;28;20120;-78
2024/02/22 06:04:18;;;;;;;1.00;0.60;;;10.00;99.90;;;;;;5051674;28;20025;-78
2024/02/22 06:06:44;;;;;;;2.08;0.52;;;10.00;99.90;;;;;;5052153;28;20060;-81
2024/02/22 06:09:09;;;;;;;1.02;0.55;;;10.00;99.90;;;;;;5055035;28;20450;-80
2024/02/22 06:11:35;;;;;;;0.40;0.40;;;10.00;99.90;;;;;;5053390;28;20041;-80
2024/02/22 06:14:01;;;;;;;1.30;0.70;;;10.00;99.90;;;;;;5052625;28;20033;-81
2024/02/22 06:16:26;;;;;;;0.63;0.52;;;10.00;99.90;;;;;;5051257;28;20024;-79
2024/02/22 06:18:52;;;;;;;2.22;0.47;;;10.10;99.90;;;;;;5050525;28;20359;-79
2024/02/22 06:21:18;;;;;;;0.77;0.60;;;10.10;99.90;;;;;;5051181;28;20032;-79
2024/02/22 06:23:44;;;;;;;2.38;0.60;;;10.10;99.90;;;;;;5052035;28;20029;-79
2024/02/22 06:26:10;;;;;;;1.15;0.32;;;10.10;99.90;;;;;;5050780;28;20032;-81
2024/02/22 06:28:35;;;;;;;0.70;0.50;;;10.10;99.90;;;;;;5050284;28;20033;-77
2024/02/22 06:31:01;;;;;;;0.52;0.52;;;10.10;99.90;;;;;;5052495;28;20147;-79
2024/02/22 06:33:27;;;;;;;0.60;0.55;;;10.10;99.90;;;;;;5050381;28;20378;-78
2024/02/22 06:35:52;;;;;;;1.27;0.52;;;10.20;99.90;;;;;;5052112;28;20025;-78
2024/02/22 06:38:18;;;;;;;1.08;0.55;;;10.20;99.90;;;;;;5051609;28;20142;-78
2024/02/22 06:40:48;;;;;;;1.10;0.70;;;10.20;99.90;;;;;;5051224;28;20029;-78
2024/02/22 06:43:14;;;;;;;1.48;0.60;;;10.20;99.90;;;;;;5052059;28;20458;-78
2024/02/22 06:45:40;;;;;;;0.63;0.50;;;10.30;99.90;;;;;;5052768;28;20029;-79
2024/02/22 06:48:07;;;;;;;1.10;0.57;;;10.20;99.90;;;;;;5053933;28;20029;-79
2024/02/22 06:50:33;;;;;;;0.68;0.40;;;10.30;99.90;;;;;;5055587;28;20329;-79
2024/02/22 06:53:03;;;;;;;0.85;0.40;;;10.30;99.90;;;;;;5055066;28;20036;-79
2024/02/22 06:55:31;;;;;;;0.70;0.50;;;10.30;99.90;;;;;;5055465;28;20025;-79
2024/02/22 06:57:56;;;;;;;0.60;0.40;;;10.30;99.90;;;;;;5054927;28;20485;-79
2024/02/22 07:00:22;;;;;;;0.43;0.40;;;10.30;99.90;;;;;;5054158;28;20025;-79
2024/02/22 07:02:48;;;;;;;0.40;0.40;;;10.40;99.90;;;;;;5054945;28;20029;-79
2024/02/22 07:05:13;;;;;;;1.50;0.40;;;10.40;99.90;;;;;;5055006;28;20029;-79
2024/02/22 07:07:39;;;;;;;0.80;0.38;;;10.40;99.90;;;;;;5054316;28;20082;-78
2024/02/22 07:10:06;;;;;;;0.60;0.40;;;10.40;99.90;;;;;;5054656;28;20036;-79
2024/02/22 07:12:32;;;;;;;1.95;0.60;;;10.40;99.90;;;;;;5054030;28;20567;-79
2024/02/22 07:14:58;;;;;;;0.47;0.25;;;10.40;99.90;;;;;;5054787;28;20029;-79
2024/02/22 07:17:24;;;;;;;0.30;0.25;;;10.50;99.90;;;;;;5055171;28;20082;-79
2024/02/22 07:19:50;;;;;;;0.30;0.30;;;10.50;99.90;;;;;;5054622;28;20060;-79
2024/02/22 07:22:17;;;;;;;1.73;0.57;;;10.50;99.90;;;;;;5054348;28;20056;-76
2024/02/22 07:24:42;;;;;;;0.52;0.30;;;10.50;99.90;;;;;;5054423;28;20032;-79
2024/02/22 07:27:09;;;;;;;0.90;0.43;;;10.60;99.90;;;;;;5054548;28;20033;-79
2024/02/22 07:29:35;;;;;;;0.88;0.43;;;10.60;99.90;;;;;;5054906;28;20025;-79
2024/02/22 07:32:01;;;;;;;0.65;0.40;;;10.60;99.90;;;;;;5054514;28;20028;-78
2024/02/22 07:34:27;;;;;;;0.50;0.40;;;10.60;99.90;;;;;;5054875;28;20021;-78
2024/02/22 07:36:52;;;;;;;2.08;0.30;;;10.60;99.90;;;;;;5054129;28;20497;-79
2024/02/22 07:39:18;;;;;;;1.27;0.35;;;10.60;99.90;;;;;;5053814;28;20040;-78
2024/02/22 07:41:44;;;;;;;0.52;0.28;;;10.60;99.90;;;;;;5054075;28;20024;-79
2024/02/22 07:44:13;;;;;;;1.13;0.40;;;10.60;99.90;;;;;;5053859;28;20060;-79
2024/02/22 07:46:41;;;;;;;0.95;0.30;;;10.60;99.90;;;;;;5054597;28;20047;-79
2024/02/22 07:49:07;;;;;;;0.40;0.30;;;10.70;99.90;;;;;;5054019;28;20031;-79
2024/02/22 07:51:32;;;;;;;2.50;0.30;;;10.70;99.90;;;;;;5054575;28;20111;-79
2024/02/22 07:53:59;;;;;;;1.50;0.40;;;10.70;99.90;;;;;;5054006;28;20036;-79
2024/02/22 07:56:24;;;;;;;1.77;0.35;;;10.70;99.90;;;;;;5053221;28;20125;-79
2024/02/22 07:58:53;;;;;;;0.40;0.20;;;10.70;99.90;;;;;;5052956;28;20116;-79
2024/02/22 08:01:19;;;;;;;1.25;0.28;;;10.70;99.90;;;;;;5053758;28;20029;-77
2024/02/22 08:03:45;;;;;;;1.33;0.35;;;10.70;99.90;;;;;;5054727;28;20183;-79
2024/02/22 08:06:12;;;;;;;0.50;0.38;;;10.70;99.90;;;;;;5053517;28;20025;-79
2024/02/22 08:08:38;;;;;;;0.20;0.20;;;10.70;99.90;;;;;;5054292;28;20021;-79
2024/02/22 08:11:05;;;;;;;0.28;0.20;;;10.80;99.90;;;;;;5053750;28;20055;-79
2024/02/22 08:13:31;;;;;;;1.00;0.30;;;10.70;99.90;;;;;;5052700;28;20025;-79
2024/02/22 08:16:07;;;;;;;0.60;0.30;;;10.80;99.90;;;;;;5054431;28;20094;-79
2024/02/22 08:18:37;;;;;;;0.60;0.30;;;10.80;99.90;;;;;;5054001;28;20055;-79
2024/02/22 08:21:05;;;;;;;0.30;0.30;;;10.80;99.90;;;;;;5053545;28;20480;-79
2024/02/22 08:23:31;;;;;;;1.25;0.40;;;10.80;99.90;;;;;;5052749;28;20470;-77
2024/02/22 08:25:56;;;;;;;0.25;0.25;;;10.80;99.90;;;;;;5063306;28;20031;-79
2024/02/22 08:28:23;;;;;;;0.90;0.40;;;10.80;99.90;;;;;;5062516;28;20115;-77
2024/02/22 08:30:48;;;;;;;0.20;0.13;;;10.80;99.90;;;;;;5052748;28;20043;-79
2024/02/22 08:33:14;;;;;;;0.40;0.30;;;10.80;99.90;;;;;;5053961;28;20135;-79
2024/02/22 08:35:40;;;;;;;0.43;0.32;;;10.90;99.90;;;;;;5052177;28;20079;-79
2024/02/22 08:38:07;;;;;;;1.00;0.50;;;10.90;99.90;;;;;;5053107;28;20389;-79
2024/02/22 08:40:33;;;;;;;0.50;0.30;;;11.00;99.90;;;;;;5064562;28;20062;-79
2024/02/22 08:43:00;;;;;;;0.30;0.20;;;11.00;99.90;;;;;;5059665;28;20037;-79
2024/02/22 08:45:31;;;;;;;0.32;0.30;;;11.00;99.90;;;;;;5053641;28;20025;-79
2024/02/22 08:47:56;;;;;;;0.63;0.30;;;11.00;99.90;;;;;;5052902;28;20029;-79
2024/02/22 08:50:22;;;;;;;2.50;0.25;;;11.00;99.90;;;;;;5051240;28;20055;-78
2024/02/22 08:52:47;;;;;;;0.30;0.30;;;11.00;99.90;;;;;;5053709;28;20493;-79
2024/02/22 08:55:13;;;;;;;0.52;0.20;;;11.00;99.90;;;;;;5053073;28;20028;-78
2024/02/22 08:57:39;;;;;;;0.20;0.20;;;11.00;99.90;;;;;;5051786;28;20211;-79
2024/02/22 09:00:10;;;;;;;1.23;0.30;;;11.00;99.90;;;;;;5053753;28;20032;-79
2024/02/22 09:02:36;;;;;;;0.43;0.25;;;11.10;99.90;;;;;;5051758;28;20119;-78
2024/02/22 09:05:02;;;;;;;0.45;0.20;;;11.10;99.90;;;;;;5053315;28;20051;-78
2024/02/22 09:07:28;;;;;;;0.75;0.30;;;11.10;99.90;;;;;;5051709;28;20538;-78
2024/02/22 09:09:53;;;;;;;1.35;0.30;;;11.20;99.90;;;;;;5052402;28;20029;-78
2024/02/22 09:12:20;;;;;;;0.47;0.20;;;11.20;99.90;;;;;;5052548;28;20065;-78
2024/02/22 09:14:45;;;;;;;0.43;0.38;;;11.20;99.90;;;;;;5053549;28;20382;-78
2024/02/22 09:17:11;;;;;;;1.20;0.20;;;11.20;99.90;;;;;;5053448;28;20025;-78
2024/02/22 09:19:37;;;;;;;0.20;0.20;;;11.20;99.90;;;;;;5051745;28;20082;-78
2024/02/22 09:22:03;;;;;;;0.30;0.20;;;11.30;99.90;;;;;;5052494;28;20111;-79
2024/02/22 09:24:32;;;;;;;0.40;0.10;;;11.30;99.90;;;;;;5051607;28;20025;-78
2024/02/22 09:26:57;;;;;;;4.40;0.22;;;11.30;99.90;;;;;;5052403;28;20024;-78
2024/02/22 09:29:26;;;;;;;0.25;0.17;;;11.40;99.90;;;;;;5052515;28;20032;-77
2024/02/22 09:31:55;;;;;;;0.30;0.20;;;11.40;99.90;;;;;;5051521;28;20024;-78
2024/02/22 09:34:23;;;;;;;3.40;0.57;;;11.40;99.90;;;;;;5051540;28;20075;-74
2024/02/22 09:36:48;;;;;;;0.20;0.20;;;11.40;99.90;;;;;;5051949;28;20025;-78
2024/02/22 09:39:15;;;;;;;0.63;0.32;;;11.40;99.90;;;;;;5053079;28;20375;-78
2024/02/22 09:41:42;;;;;;;0.10;0.10;;;11.40;99.90;;;;;;5051371;28;20029;-77
2024/02/22 09:44:10;;;;;;;0.70;0.10;;;11.40;99.90;;;;;;5052712;28;20052;-78
2024/02/22 09:46:37;;;;;;;0.35;0.20;;;11.40;99.90;;;;;;5051170;28;20043;-79
2024/02/22 09:49:03;;;;;;;1.10;0.28;;;11.50;99.90;;;;;;5052333;28;20032;-79
2024/02/22 09:51:30;;;;;;;0.10;0.10;;;11.50;99.90;;;;;;5052461;28;20108;-79
2024/02/22 09:53:56;;;;;;;0.95;0.32;;;11.60;99.90;;;;;;5051648;28;20055;-79
2024/02/22 09:56:24;;;;;;;0.30;0.30;;;11.60;99.90;;;;;;5052031;28;20053;-79
2024/02/22 09:58:49;;;;;;;0.73;0.30;;;11.60;99.90;;;;;;5052990;28;20033;-79
2024/02/22 10:01:15;;;;;;;0.38;0.20;;;11.60;99.90;;;;;;5051922;28;20029;-79
2024/02/22 10:03:41;;;;;;;0.95;0.20;;;11.60;99.90;;;;;;5052515;28;20030;-78
2024/02/22 10:06:20;;;;;;;1.10;0.30;;;11.70;99.90;;;;;;5053055;28;20049;-79
2024/02/22 10:08:47;;;;;;;0.47;0.20;;;11.80;99.90;;;;;;5051271;28;20470;-79
2024/02/22 10:11:13;;;;;;;0.30;0.20;;;11.80;99.90;;;;;;5051724;28;20120;-78
2024/02/22 10:13:41;;;;;;;0.30;0.30;;;11.90;99.90;;;;;;5051238;28;20061;-79
2024/02/22 10:16:25;;;;;;;0.30;0.20;;;12.00;99.90;;;;;;5052811;28;20489;-79
2024/02/22 10:18:57;;;;;;;0.45;0.20;;;12.00;99.90;;;;;;5051889;28;20363;-79
2024/02/22 10:21:27;;;;;;;0.47;0.20;;;12.00;99.90;;;;;;5051807;28;20485;-79
2024/02/22 10:23:58;;;;;;;1.10;0.32;;;12.00;99.90;;;;;;5055542;28;20111;-79
2024/02/22 10:26:28;;;;;;;0.30;0.30;;;12.00;99.90;;;;;;5055806;28;20036;-79
2024/02/22 10:29:06;;;;;;;0.52;0.30;;;12.00;99.90;;;;;;5056660;28;20114;-79
2024/02/22 10:31:45;;;;;;;0.45;0.32;;;12.00;99.90;;;;;;5054749;28;20021;-79
2024/02/22 10:34:12;;;;;;;0.40;0.20;;;12.00;99.90;;;;;;5055464;28;20462;-78
2024/02/22 10:36:40;;;;;;;1.42;0.20;;;12.00;99.90;;;;;;5055869;28;20055;-78
2024/02/22 10:39:07;;;;;;;0.60;0.10;;;12.00;99.90;;;;;;5055178;28;20029;-78
2024/02/22 10:41:35;;;;;;;0.45;0.20;;;12.00;99.90;;;;;;5054369;28;20510;-78
2024/02/22 10:44:04;;;;;;;1.00;0.30;;;12.00;99.90;;;;;;5054976;28;20052;-75
2024/02/22 10:46:37;;;;;;;0.20;0.13;;;12.00;99.90;;;;;;5055457;28;20489;-75
2024/02/22 10:49:11;;;;;;;0.32;0.20;;;12.00;99.90;;;;;;5055193;28;20035;-79
2024/02/22 10:51:41;;;;;;;0.17;0.10;;;12.00;99.90;;;;;;5054563;28;20072;-78
2024/02/22 10:54:11;;;;;;;0.30;0.30;;;12.00;99.90;;;;;;5055009;28;20025;-78
2024/02/22 10:56:48;;;;;;;0.90;0.30;;;12.00;99.90;;;;;;5055619;28;20021;-78
2024/02/22 10:59:17;;;;;;;0.50;0.30;;;12.00;99.90;;;;;;5054989;28;20474;-79
2024/02/22 11:01:43;;;;;;;1.05;0.28;;;12.00;99.90;;;;;;5055437;28;20025;-78
2024/02/22 11:04:11;;;;;;;0.73;0.20;;;12.00;99.90;;;;;;5054587;28;20021;-78
2024/02/22 11:06:41;;;;;;;0.63;0.20;;;12.00;99.90;;;;;;5054206;28;20028;-78
2024/02/22 11:09:24;;;;;;;0.30;0.22;;;12.00;99.90;;;;;;5055886;28;20159;-79
2024/02/22 11:11:59;;;;;;;0.20;0.20;;;12.00;99.90;;;;;;5055192;28;20040;-78
2024/02/22 11:14:31;;;;;;;0.40;0.20;;;12.00;99.90;;;;;;5055741;28;20087;-78
2024/02/22 11:17:05;;;;;;;0.50;0.30;;;12.00;99.90;;;;;;5054354;28;20025;-78
2024/02/22 11:19:30;;;;;;;0.95;0.30;;;11.90;99.90;;;;;;5053813;28;20067;-78
2024/02/22 11:21:56;;;;;;;0.98;0.28;;;12.00;99.90;;;;;;5054997;28;20033;-78
2024/02/22 11:24:23;;;;;;;0.60;0.30;;;12.00;99.90;;;;;;5055504;28;20029;-78
2024/02/22 11:26:57;;;;;;;0.55;0.35;;;12.10;99.90;;;;;;5054620;28;20029;-78
2024/02/22 11:29:31;;;;;;;0.60;0.30;;;12.10;99.90;;;;;;5055351;28;20049;-78
2024/02/22 11:32:04;;;;;;;1.17;0.20;;;12.20;99.90;;;;;;5054276;28;20043;-78
2024/02/22 11:34:30;;;;;;;1.75;0.50;;;12.30;99.90;;;;;;5053224;28;20049;-77
2024/02/22 11:37:07;;;;;;;0.63;0.30;;;12.40;99.90;;;;;;5054777;28;20533;-78
2024/02/22 11:39:32;;;;;;;0.20;0.20;;;12.50;99.90;;;;;;5053879;28;20385;-78
2024/02/22 11:41:58;;;;;;;0.30;0.30;;;12.50;99.90;;;;;;5054872;28;20029;-79
2024/02/22 11:44:23;;;;;;;0.57;0.50;;;12.50;99.90;;;;;;5053534;28;20053;-78
2024/02/22 11:46:49;;;;;;;0.35;0.30;;;12.60;99.90;;;;;;5069797;28;20036;-78
2024/02/22 11:49:17;;;;;;;0.68;0.40;;;12.60;99.90;;;;;;5054442;28;20160;-78
2024/02/22 11:51:43;;;;;;;0.20;0.20;;;12.60;99.90;;;;;;5052801;28;20029;-78
2024/02/22 11:54:10;;;;;;;2.03;0.50;;;12.60;99.90;;;;;;5054798;28;20159;-78
2024/02/22 11:56:36;;;;;;;0.50;0.30;;;12.60;99.90;;;;;;5052908;28;20398;-78
2024/02/22 11:59:02;;;;;;;0.50;0.30;;;12.60;99.90;;;;;;5054627;28;20096;-78
2024/02/22 12:01:29;;;;;;;0.82;0.40;;;12.70;99.90;;;;;;5053337;28;20021;-78
2024/02/22 12:03:55;;;;;;;0.43;0.20;;;12.80;99.90;;;;;;5052816;28;20115;-78
2024/02/22 12:06:21;;;;;;;0.80;0.40;;;12.90;99.90;;;;;;5054784;28;20029;-78
2024/02/22 12:08:52;;;;;;;0.98;0.40;;;13.00;99.90;;;;;;5072448;28;20035;-78
2024/02/22 12:11:18;;;;;;;0.35;0.30;;;12.90;99.90;;;;;;5074639;28;20066;-78
2024/02/22 12:13:58;;;;;;;0.40;0.30;;;12.90;99.90;;;;;;5073894;28;20033;-78
2024/02/22 12:16:25;;;;;;;0.63;0.30;;;12.90;99.90;;;;;;5073187;28;20024;-79
2024/02/22 12:18:51;;;;;;;0.30;0.25;;;12.90;99.90;;;;;;5072069;28;20264;-78
2024/02/22 12:21:20;;;;;;;1.08;0.40;;;13.00;99.90;;;;;;5072732;28;20086;-79
2024/02/22 12:23:46;;;;;;;0.52;0.35;;;12.90;99.90;;;;;;5073374;28;20137;-78
2024/02/22 12:26:11;;;;;;;0.60;0.43;;;12.90;99.90;;;;;;5073261;28;20450;-79
2024/02/22 12:28:37;;;;;;;0.52;0.40;;;12.80;99.90;;;;;;5073671;28;20075;-79
2024/02/22 12:31:04;;;;;;;1.15;0.50;;;12.80;99.90;;;;;;5073256;28;20462;-79
2024/02/22 12:33:32;;;;;;;2.90;0.40;;;12.70;99.90;;;;;;5073878;28;20077;-79
2024/02/22 12:35:57;;;;;;;0.50;0.40;;;12.70;99.90;;;;;;5072645;28;20082;-78
2024/02/22 12:38:24;;;;;;;0.77;0.50;;;12.70;99.90;;;;;;5072723;28;20126;-78
2024/02/22 12:40:49;;;;;;;0.30;0.30;;;12.60;99.90;;;;;;5072154;28;20021;-78
2024/02/22 12:43:18;;;;;;;0.52;0.40;;;12.60;99.90;;;;;;5073558;28;20524;-79
2024/02/22 12:45:44;;;;;;;3.40;1.27;;;12.50;99.90;;;;;;5071754;28;20040;-79
2024/02/22 12:48:10;;;;;;;0.50;0.38;;;12.50;99.90;;;;;;5073962;28;20037;-79